createdAt,value
2023-02-23T00:00:09.930Z,84.47
2023-02-23T00:02:36.295Z,84.47
2023-02-23T00:05:02.861Z,84.50
2023-02-23T00:07:29.231Z,84.47
2023-02-23T00:09:55.611Z,84.47
2023-02-23T00:12:22.004Z,84.46
2023-02-23T00:14:48.328Z,84.48
2023-02-23T00:17:15.369Z,84.48
2023-02-23T00:19:41.997Z,84.47
2023-02-23T00:22:08.548Z,84.47
2023-02-23T00:24:34.910Z,84.49
2023-02-23T00:27:01.468Z,84.48
2023-02-23T00:29:28.006Z,84.49
2023-02-23T00:31:54.415Z,84.46
2023-02-23T00:34:20.784Z,84.49
2023-02-23T00:36:47.150Z,84.47
2023-02-23T00:39:13.484Z,84.52
2023-02-23T00:41:39.821Z,84.50
2023-02-23T00:44:06.419Z,84.49
2023-02-23T00:46:32.765Z,84.60
2023-02-23T00:48:59.091Z,84.53
2023-02-23T00:51:25.453Z,84.51
2023-02-23T00:53:51.798Z,84.66
2023-02-23T00:56:18.146Z,84.55
2023-02-23T00:58:44.503Z,84.62
2023-02-23T01:01:11.283Z,84.54
2023-02-23T01:03:37.708Z,84.56
2023-02-23T01:06:04.095Z,84.59
2023-02-23T01:08:30.423Z,84.52
2023-02-23T01:10:56.967Z,84.53
2023-02-23T01:13:23.295Z,84.55
2023-02-23T01:15:49.893Z,84.79
2023-02-23T01:18:16.244Z,84.62
2023-02-23T01:20:42.579Z,84.66
2023-02-23T01:23:08.923Z,84.63
2023-02-23T01:25:35.256Z,84.66
2023-02-23T01:28:01.575Z,84.69
2023-02-23T01:30:27.909Z,84.64
2023-02-23T01:32:54.246Z,84.63
2023-02-23T01:35:20.594Z,84.65
2023-02-23T01:37:47.130Z,84.68
2023-02-23T01:40:13.488Z,84.67
2023-02-23T01:42:39.836Z,84.64
2023-02-23T01:45:06.207Z,84.69
2023-02-23T01:47:32.492Z,84.69
2023-02-23T01:49:58.893Z,84.68
2023-02-23T01:52:25.251Z,84.73
2023-02-23T01:54:52.238Z,84.68
2023-02-23T01:57:18.622Z,84.69
2023-02-23T01:59:44.974Z,84.76
2023-02-23T02:02:11.326Z,84.75
2023-02-23T02:04:37.906Z,84.78
2023-02-23T02:07:04.263Z,84.76
2023-02-23T02:09:30.630Z,84.75
2023-02-23T02:11:56.958Z,84.75
2023-02-23T02:14:23.290Z,84.82
2023-02-23T02:16:49.639Z,84.80
2023-02-23T02:19:15.964Z,84.76
2023-02-23T02:21:42.314Z,84.80
2023-02-23T02:24:08.688Z,84.80
2023-02-23T02:26:35.230Z,84.79
2023-02-23T02:29:01.555Z,84.73
2023-02-23T02:31:27.955Z,84.75
2023-02-23T02:34:09.712Z,84.75
2023-02-23T02:36:36.068Z,84.79
2023-02-23T02:39:02.423Z,84.97
2023-02-23T02:41:29.202Z,84.84
2023-02-23T02:43:55.545Z,84.83
2023-02-23T02:46:21.921Z,84.83
2023-02-23T02:48:48.274Z,84.88
2023-02-23T02:51:14.831Z,84.86
2023-02-23T02:53:41.172Z,84.85
2023-02-23T02:56:07.529Z,84.96
2023-02-23T02:58:33.869Z,84.86
2023-02-23T03:01:00.215Z,84.88
2023-02-23T03:03:26.800Z,84.86
2023-02-23T03:05:53.169Z,84.82
2023-02-23T03:08:19.514Z,84.87
2023-02-23T03:10:46.078Z,84.91
2023-02-23T03:13:12.431Z,84.96
2023-02-23T03:15:38.792Z,84.88
2023-02-23T03:18:05.182Z,84.96
2023-02-23T03:20:31.765Z,84.92
2023-02-23T03:22:59.177Z,85.02
2023-02-23T03:25:25.516Z,85.00
2023-02-23T03:27:51.874Z,85.02
2023-02-23T03:30:18.230Z,85.01
2023-02-23T03:32:44.584Z,84.98
2023-02-23T03:35:10.941Z,84.98
2023-02-23T03:37:37.308Z,85.00
2023-02-23T03:40:03.657Z,84.99
2023-02-23T03:42:30.020Z,85.06
2023-02-23T03:44:56.368Z,85.02
2023-02-23T03:47:22.719Z,84.96
2023-02-23T03:49:49.077Z,84.95
2023-02-23T03:52:15.432Z,84.98
2023-02-23T03:54:41.789Z,84.99
2023-02-23T03:57:08.122Z,84.93
2023-02-23T03:59:34.481Z,84.93
2023-02-23T04:02:00.911Z,84.93
2023-02-23T04:04:27.320Z,84.85
2023-02-23T04:06:53.710Z,84.92
2023-02-23T04:09:20.064Z,84.93
2023-02-23T04:11:46.418Z,84.99
2023-02-23T04:14:12.773Z,84.99
2023-02-23T04:16:39.334Z,84.91
2023-02-23T04:19:05.740Z,84.90
2023-02-23T04:21:32.110Z,85.09
2023-02-23T04:23:58.442Z,85.02
2023-02-23T04:26:24.771Z,84.95
2023-02-23T04:28:51.100Z,84.96
2023-02-23T04:31:17.825Z,84.93
2023-02-23T04:33:44.371Z,85.05
2023-02-23T04:36:10.750Z,84.87
2023-02-23T04:38:37.082Z,84.99
2023-02-23T04:41:03.420Z,84.93
2023-02-23T04:43:29.765Z,84.89
2023-02-23T04:45:56.160Z,84.86
2023-02-23T04:48:22.525Z,84.95
2023-02-23T04:50:48.881Z,84.89
2023-02-23T04:53:15.227Z,84.95
2023-02-23T04:55:41.587Z,84.79
2023-02-23T04:58:07.953Z,84.87
2023-02-23T05:00:34.350Z,84.92
2023-02-23T05:03:00.707Z,84.98
2023-02-23T05:05:27.051Z,84.96
2023-02-23T05:07:53.383Z,84.88
2023-02-23T05:10:19.719Z,84.97
2023-02-23T05:12:46.091Z,84.82
2023-02-23T05:15:12.552Z,85.02
2023-02-23T05:17:38.879Z,84.97
2023-02-23T05:20:05.225Z,85.02
2023-02-23T05:22:31.583Z,84.70
2023-02-23T05:24:57.935Z,84.87
2023-02-23T05:27:24.286Z,84.95
2023-02-23T05:29:50.632Z,84.87
2023-02-23T05:32:17.111Z,85.01
2023-02-23T05:34:43.476Z,84.95
2023-02-23T05:37:09.821Z,84.91
2023-02-23T05:39:36.461Z,85.00
2023-02-23T05:42:02.831Z,85.05
2023-02-23T05:44:29.181Z,84.93
2023-02-23T05:46:55.513Z,84.85
2023-02-23T05:49:21.872Z,84.73
2023-02-23T05:51:48.241Z,84.93
2023-02-23T05:54:14.807Z,84.87
2023-02-23T05:56:41.171Z,84.95
2023-02-23T05:59:07.549Z,84.99
2023-02-23T06:01:33.887Z,85.12
2023-02-23T06:04:00.287Z,84.94
2023-02-23T06:06:26.667Z,84.70
2023-02-23T06:08:53.015Z,83.72
2023-02-23T06:11:19.574Z,84.16
2023-02-23T06:13:46.674Z,84.40
2023-02-23T06:16:13.342Z,84.80
2023-02-23T06:18:39.961Z,84.92
2023-02-23T06:21:06.328Z,85.00
2023-02-23T06:23:32.723Z,84.83
2023-02-23T06:25:59.115Z,84.84
2023-02-23T06:28:26.089Z,84.83
2023-02-23T06:30:52.472Z,84.86
2023-02-23T06:33:19.073Z,84.91
2023-02-23T06:35:45.428Z,85.14
2023-02-23T06:38:11.781Z,85.02
2023-02-23T06:40:38.149Z,84.71
2023-02-23T06:43:04.508Z,84.96
2023-02-23T06:45:32.857Z,84.95
2023-02-23T06:47:59.219Z,84.92
2023-02-23T06:50:25.586Z,84.83
2023-02-23T06:52:51.947Z,84.90
2023-02-23T06:55:18.301Z,84.83
2023-02-23T06:57:44.635Z,85.11
2023-02-23T07:00:12.058Z,85.18
2023-02-23T07:02:38.384Z,85.00
2023-02-23T07:05:05.243Z,85.06
2023-02-23T07:07:31.594Z,85.05
2023-02-23T07:09:57.928Z,84.84
2023-02-23T07:12:24.265Z,84.43
2023-02-23T07:14:50.854Z,84.47
2023-02-23T07:17:17.425Z,84.87
2023-02-23T07:19:43.792Z,85.08
2023-02-23T07:22:11.276Z,85.20
2023-02-23T07:24:37.627Z,84.97
2023-02-23T07:27:04.495Z,85.20
2023-02-23T07:29:30.840Z,84.92
2023-02-23T07:31:57.310Z,85.05
2023-02-23T07:34:23.715Z,85.20
2023-02-23T07:36:50.073Z,85.08
2023-02-23T07:39:17.062Z,85.07
2023-02-23T07:41:43.439Z,85.07
2023-02-23T07:44:09.794Z,85.37
2023-02-23T07:46:36.125Z,85.49
2023-02-23T07:49:02.481Z,85.41
2023-02-23T07:51:28.819Z,85.31
2023-02-23T07:53:55.187Z,85.42
2023-02-23T07:56:21.570Z,85.47
2023-02-23T07:58:48.144Z,85.45
2023-02-23T08:01:14.530Z,85.60
2023-02-23T08:03:40.919Z,85.50
2023-02-23T08:06:07.252Z,85.44
2023-02-23T08:08:33.574Z,85.46
2023-02-23T08:11:00.676Z,85.37
2023-02-23T08:13:27.026Z,84.95
2023-02-23T08:15:55.093Z,85.00
2023-02-23T08:18:21.479Z,85.25
2023-02-23T08:20:47.849Z,85.52
2023-02-23T08:23:14.182Z,85.44
2023-02-23T08:25:40.520Z,85.21
2023-02-23T08:28:07.933Z,85.44
2023-02-23T08:30:34.480Z,85.27
2023-02-23T08:33:01.111Z,85.46
2023-02-23T08:35:27.456Z,85.26
2023-02-23T08:37:54.073Z,85.40
2023-02-23T08:40:20.420Z,85.34
2023-02-23T08:42:48.268Z,85.35
2023-02-23T08:45:14.613Z,85.30
2023-02-23T08:47:40.948Z,85.33
2023-02-23T08:50:07.286Z,85.33
2023-02-23T08:52:33.895Z,85.26
2023-02-23T08:55:01.772Z,85.27
2023-02-23T08:57:28.111Z,85.01
2023-02-23T08:59:55.683Z,85.27
2023-02-23T09:02:22.285Z,85.36
2023-02-23T09:04:48.636Z,85.24
2023-02-23T09:07:15.000Z,85.20
2023-02-23T09:09:41.339Z,85.21
2023-02-23T09:12:07.926Z,85.23
2023-02-23T09:14:34.507Z,84.66
2023-02-23T09:17:00.865Z,83.84
2023-02-23T09:19:27.198Z,83.59
2023-02-23T09:21:53.547Z,83.33
2023-02-23T09:24:20.677Z,83.94
2023-02-23T09:26:47.041Z,84.37
2023-02-23T09:29:13.394Z,84.69
2023-02-23T09:31:39.809Z,84.87
2023-02-23T09:34:06.194Z,85.04
2023-02-23T09:36:32.526Z,85.08
2023-02-23T09:38:58.883Z,85.16
2023-02-23T09:41:25.264Z,85.15
2023-02-23T09:43:52.137Z,85.18
2023-02-23T09:46:18.658Z,85.18
2023-02-23T09:48:45.031Z,85.16
2023-02-23T09:51:11.565Z,85.20
2023-02-23T09:53:37.904Z,85.24
2023-02-23T09:58:51.809Z,85.15
2023-02-23T10:01:18.576Z,85.28
2023-02-23T10:03:45.095Z,85.24
2023-02-23T10:06:11.462Z,85.20
2023-02-23T10:08:37.836Z,85.29
2023-02-23T10:11:04.969Z,85.20
2023-02-23T10:13:32.241Z,85.17
2023-02-23T10:15:58.609Z,85.20
2023-02-23T10:18:35.940Z,85.31
2023-02-23T10:21:11.311Z,85.29
2023-02-23T10:23:39.153Z,85.28
2023-02-23T10:26:05.526Z,85.20
2023-02-23T10:28:32.096Z,85.20
2023-02-23T10:30:59.055Z,85.25
2023-02-23T10:33:25.418Z,85.31
2023-02-23T10:35:55.920Z,85.27
2023-02-23T10:38:26.936Z,85.23
2023-02-23T10:40:53.275Z,85.21
2023-02-23T10:43:19.859Z,85.20
2023-02-23T10:45:46.223Z,85.20
2023-02-23T10:48:15.507Z,85.24
2023-02-23T10:50:41.865Z,85.23
2023-02-23T10:53:08.214Z,85.22
2023-02-23T10:55:35.077Z,85.17
2023-02-23T10:58:01.433Z,85.25
2023-02-23T11:00:28.103Z,85.27
2023-02-23T11:02:55.055Z,85.15
2023-02-23T11:05:21.433Z,85.19
2023-02-23T11:07:47.987Z,85.19
2023-02-23T11:10:14.693Z,85.21
2023-02-23T11:12:41.096Z,85.19
2023-02-23T11:15:07.438Z,85.23
2023-02-23T11:17:33.777Z,85.19
2023-02-23T11:20:00.137Z,85.20
2023-02-23T11:22:26.490Z,85.18
2023-02-23T11:24:52.848Z,85.20
2023-02-23T11:27:19.346Z,85.23
2023-02-23T11:29:45.713Z,85.22
2023-02-23T11:32:12.155Z,85.28
2023-02-23T11:34:38.560Z,85.29
2023-02-23T11:37:04.912Z,85.29
2023-02-23T11:39:31.478Z,85.36
2023-02-23T11:41:57.833Z,85.20
2023-02-23T11:44:24.193Z,85.25
2023-02-23T11:46:50.555Z,85.29
2023-02-23T11:49:16.929Z,85.32
2023-02-23T11:51:43.290Z,85.24
2023-02-23T11:54:09.694Z,85.33
2023-02-23T11:56:36.067Z,85.27
2023-02-23T11:59:02.448Z,85.25
2023-02-23T12:01:28.847Z,85.32
2023-02-23T12:03:55.237Z,85.33
2023-02-23T12:06:21.848Z,85.34
2023-02-23T12:08:48.379Z,85.33
2023-02-23T12:11:14.738Z,85.31
2023-02-23T12:13:41.130Z,85.35
2023-02-23T12:16:07.560Z,85.30
2023-02-23T12:18:33.972Z,85.39
2023-02-23T12:21:00.581Z,85.37
2023-02-23T12:23:26.957Z,85.34
2023-02-23T12:25:53.303Z,85.40
2023-02-23T12:28:19.747Z,85.38
2023-02-23T12:30:46.273Z,85.37
2023-02-23T12:33:12.675Z,85.46
2023-02-23T12:35:39.047Z,85.43
2023-02-23T12:38:05.422Z,85.37
2023-02-23T12:40:31.786Z,85.35
2023-02-23T12:42:58.196Z,85.39
2023-02-23T12:45:24.575Z,85.36
2023-02-23T12:47:51.163Z,85.43
2023-02-23T12:50:17.529Z,85.34
2023-02-23T12:52:43.880Z,85.46
2023-02-23T12:55:10.261Z,85.39
2023-02-23T12:57:36.610Z,85.47
2023-02-23T13:00:02.943Z,85.46
2023-02-23T13:02:29.296Z,85.45
2023-02-23T13:04:55.680Z,85.47
2023-02-23T13:07:22.065Z,85.48
2023-02-23T13:09:48.443Z,85.44
2023-02-23T13:12:14.888Z,85.49
2023-02-23T13:14:41.510Z,85.46
2023-02-23T13:17:07.868Z,85.44
2023-02-23T13:19:34.206Z,85.43
2023-02-23T13:22:00.577Z,85.48
2023-02-23T13:24:27.170Z,85.43
2023-02-23T13:26:53.563Z,85.48
2023-02-23T13:29:19.900Z,85.40
2023-02-23T13:31:46.422Z,85.44
2023-02-23T13:34:12.916Z,85.46
2023-02-23T13:36:39.250Z,85.43
2023-02-23T13:39:18.003Z,85.30
2023-02-23T13:41:45.228Z,85.29
2023-02-23T13:44:11.587Z,85.06
2023-02-23T13:46:37.958Z,84.68
2023-02-23T13:49:04.328Z,84.85
2023-02-23T13:51:30.891Z,85.04
2023-02-23T13:53:57.288Z,84.92
2023-02-23T13:56:23.680Z,85.14
2023-02-23T13:58:50.035Z,84.99
2023-02-23T14:01:16.439Z,85.04
2023-02-23T14:03:42.758Z,85.05
2023-02-23T14:06:09.107Z,84.94
2023-02-23T14:08:35.478Z,84.51
2023-02-23T14:11:02.083Z,84.43
2023-02-23T14:13:28.432Z,84.46
2023-02-23T14:15:54.793Z,84.53
2023-02-23T14:18:21.232Z,84.42
2023-02-23T14:20:47.701Z,84.27
2023-02-23T14:23:14.050Z,84.33
2023-02-23T14:25:40.414Z,84.33
2023-02-23T14:28:06.836Z,84.24
2023-02-23T14:30:33.252Z,84.23
2023-02-23T14:33:03.227Z,84.21
2023-02-23T14:35:31.742Z,84.19
2023-02-23T14:37:58.114Z,84.37
2023-02-23T14:40:24.456Z,84.59
2023-02-23T14:42:50.824Z,84.43
2023-02-23T14:45:17.194Z,84.37
2023-02-23T14:47:43.574Z,84.21
2023-02-23T14:50:09.914Z,84.24
2023-02-23T14:52:36.250Z,84.31
2023-02-23T14:55:02.797Z,84.29
2023-02-23T14:57:29.216Z,84.17
2023-02-23T14:59:55.626Z,84.20
2023-02-23T15:02:22.019Z,84.35
2023-02-23T15:04:48.451Z,84.43
2023-02-23T15:07:16.686Z,84.26
2023-02-23T15:09:43.162Z,84.38
2023-02-23T15:12:09.761Z,84.40
2023-02-23T15:14:36.129Z,84.39
2023-02-23T15:17:02.472Z,84.41
2023-02-23T15:19:28.840Z,84.49
2023-02-23T15:21:55.200Z,84.34
2023-02-23T15:24:21.562Z,84.36
2023-02-23T15:26:47.900Z,84.45
2023-02-23T15:29:14.272Z,84.38
2023-02-23T15:31:40.895Z,84.34
2023-02-23T15:34:07.464Z,84.30
2023-02-23T15:36:33.790Z,84.40
2023-02-23T15:39:00.139Z,84.31
2023-02-23T15:41:26.512Z,84.31
2023-02-23T15:43:52.883Z,84.24
2023-02-23T15:46:19.237Z,84.30
2023-02-23T15:48:45.573Z,84.18
2023-02-23T15:51:11.944Z,84.37
2023-02-23T15:53:38.358Z,84.34
2023-02-23T15:56:04.695Z,84.23
2023-02-23T15:58:31.066Z,84.32
2023-02-23T16:00:57.500Z,84.28
2023-02-23T16:03:23.926Z,84.43
2023-02-23T16:05:50.281Z,84.43
2023-02-23T16:08:16.662Z,84.31
2023-02-23T16:10:43.039Z,84.46
2023-02-23T16:13:09.388Z,84.42
2023-02-23T16:15:35.808Z,84.56
2023-02-23T16:18:02.189Z,84.50
2023-02-23T16:20:28.540Z,84.58
2023-02-23T16:22:54.923Z,84.68
2023-02-23T16:25:21.338Z,84.77
2023-02-23T16:27:47.686Z,84.73
2023-02-23T16:30:14.084Z,84.75
2023-02-23T16:32:40.561Z,84.73
2023-02-23T16:35:06.975Z,84.83
2023-02-23T16:37:33.328Z,84.81
2023-02-23T16:39:59.701Z,84.78
2023-02-23T16:42:26.070Z,84.91
2023-02-23T16:44:52.410Z,84.87
2023-02-23T16:47:18.737Z,84.94
2023-02-23T16:49:45.115Z,84.84
2023-02-23T16:52:11.699Z,84.87
2023-02-23T16:54:38.063Z,84.82
2023-02-23T16:57:04.430Z,84.87
2023-02-23T16:59:30.800Z,84.88
2023-02-23T17:01:57.147Z,84.92
2023-02-23T17:04:23.551Z,85.00
2023-02-23T17:06:49.891Z,85.02
2023-02-23T17:09:16.281Z,84.91
2023-02-23T17:11:42.626Z,84.93
2023-02-23T17:14:08.996Z,85.05
2023-02-23T17:16:35.421Z,84.94
2023-02-23T17:19:02.074Z,85.00
2023-02-23T17:21:28.435Z,85.04
2023-02-23T17:23:54.773Z,85.02
2023-02-23T17:26:21.136Z,84.91
2023-02-23T17:28:47.481Z,85.05
2023-02-23T17:31:13.900Z,85.08
2023-02-23T17:33:40.274Z,85.08
2023-02-23T17:36:06.626Z,85.07
2023-02-23T17:38:32.966Z,85.08
2023-02-23T17:40:59.305Z,85.04
2023-02-23T17:43:25.667Z,85.09
2023-02-23T17:45:52.078Z,85.04
2023-02-23T17:48:18.444Z,85.09
2023-02-23T17:50:44.788Z,85.05
2023-02-23T17:53:11.381Z,85.05
2023-02-23T17:55:37.733Z,85.05
2023-02-23T17:58:04.096Z,85.07
2023-02-23T18:00:30.445Z,85.07
2023-02-23T18:02:56.869Z,85.07
2023-02-23T18:05:23.274Z,85.08
2023-02-23T18:07:49.617Z,84.99
2023-02-23T18:10:16.309Z,84.97
2023-02-23T18:12:42.691Z,84.99
2023-02-23T18:15:09.057Z,85.03
2023-02-23T18:17:35.419Z,84.93
2023-02-23T18:20:01.830Z,84.97
2023-02-23T18:22:28.221Z,85.00
2023-02-23T18:24:55.718Z,84.92
2023-02-23T18:27:23.476Z,84.85
2023-02-23T18:29:49.841Z,84.92
2023-02-23T18:32:16.310Z,84.95
2023-02-23T18:34:42.746Z,84.72
2023-02-23T18:37:09.113Z,84.84
2023-02-23T18:39:35.492Z,84.72
2023-02-23T18:42:02.008Z,84.87
2023-02-23T18:44:28.531Z,84.78
2023-02-23T18:46:55.124Z,84.86
2023-02-23T18:49:21.586Z,84.85
2023-02-23T18:51:47.948Z,84.79
2023-02-23T18:54:14.311Z,84.68
2023-02-23T18:56:40.926Z,84.80
2023-02-23T18:59:07.259Z,84.68
2023-02-23T19:01:33.609Z,84.73
2023-02-23T19:03:59.964Z,84.96
2023-02-23T19:06:26.313Z,85.02
2023-02-23T19:08:52.678Z,84.83
2023-02-23T19:11:19.269Z,85.08
2023-02-23T19:13:45.769Z,84.88
2023-02-23T19:16:12.123Z,85.31
2023-02-23T19:18:38.499Z,84.94
2023-02-23T19:21:04.856Z,85.02
2023-02-23T19:23:31.202Z,85.40
2023-02-23T19:25:57.538Z,85.23
2023-02-23T19:28:23.865Z,85.21
2023-02-23T19:30:50.203Z,85.34
2023-02-23T19:33:16.900Z,85.30
2023-02-23T19:35:43.321Z,85.39
2023-02-23T19:38:09.718Z,85.27
2023-02-23T19:40:36.070Z,85.27
2023-02-23T19:43:02.670Z,85.31
2023-02-23T19:45:29.024Z,85.47
2023-02-23T19:47:55.409Z,85.40
2023-02-23T19:50:21.701Z,85.41
2023-02-23T19:52:48.400Z,85.38
2023-02-23T19:55:14.770Z,85.28
2023-02-23T19:57:41.144Z,84.94
2023-02-23T20:00:07.495Z,85.27
2023-02-23T20:02:33.922Z,85.13
2023-02-23T20:05:00.905Z,85.04
2023-02-23T20:07:27.261Z,84.97
2023-02-23T20:09:53.593Z,84.74
2023-02-23T20:12:20.134Z,84.60
2023-02-23T20:14:46.463Z,84.64
2023-02-23T20:17:12.906Z,84.70
2023-02-23T20:19:39.261Z,84.68
2023-02-23T20:22:05.702Z,84.74
2023-02-23T20:24:32.133Z,84.40
2023-02-23T20:26:58.480Z,84.69
2023-02-23T20:29:24.818Z,84.63
2023-02-23T20:31:51.790Z,84.70
2023-02-23T20:34:18.228Z,84.79
2023-02-23T20:36:44.786Z,84.54
2023-02-23T20:39:11.186Z,84.45
2023-02-23T20:41:37.744Z,84.61
2023-02-23T20:44:04.105Z,85.00
2023-02-23T20:46:30.820Z,84.71
2023-02-23T20:48:57.317Z,84.40
2023-02-23T20:51:23.901Z,84.88
2023-02-23T20:53:50.256Z,84.76
2023-02-23T20:56:16.627Z,85.15
2023-02-23T20:58:42.967Z,84.61
2023-02-23T21:01:09.567Z,84.68
2023-02-23T21:03:35.941Z,85.12
2023-02-23T21:06:02.290Z,84.77
2023-02-23T21:08:28.966Z,84.87
2023-02-23T21:10:55.361Z,84.72
2023-02-23T21:13:21.717Z,84.72
2023-02-23T21:15:48.095Z,85.28
2023-02-23T21:18:14.511Z,85.04
2023-02-23T21:20:40.892Z,84.74
2023-02-23T21:23:07.483Z,84.52
2023-02-23T21:25:34.056Z,84.72
2023-02-23T21:28:00.628Z,84.73
2023-02-23T21:30:26.968Z,84.62
2023-02-23T21:32:53.401Z,84.79
2023-02-23T21:35:19.885Z,84.82
2023-02-23T21:37:46.484Z,85.06
2023-02-23T21:40:12.866Z,85.54
2023-02-23T21:42:39.218Z,85.13
2023-02-23T21:45:05.787Z,85.10
2023-02-23T21:47:32.139Z,84.78
2023-02-23T21:49:58.477Z,84.68
2023-02-23T21:52:24.850Z,85.13
2023-02-23T21:54:51.403Z,85.12
2023-02-23T21:57:18.029Z,85.17
2023-02-23T21:59:44.424Z,85.06
2023-02-23T22:02:10.809Z,84.72
2023-02-23T22:04:37.278Z,84.73
2023-02-23T22:07:03.612Z,85.08
2023-02-23T22:09:29.945Z,84.80
2023-02-23T22:11:56.296Z,84.92
2023-02-23T22:14:22.771Z,85.12
2023-02-23T22:16:49.108Z,85.12
2023-02-23T22:19:15.476Z,84.80
2023-02-23T22:21:42.139Z,84.78
2023-02-23T22:24:08.490Z,85.18
2023-02-23T22:26:35.038Z,84.91
2023-02-23T22:29:01.431Z,85.12
2023-02-23T22:31:28.660Z,85.57
2023-02-23T22:33:55.097Z,85.16
2023-02-23T22:36:21.673Z,84.95
2023-02-23T22:38:48.242Z,85.00
2023-02-23T22:41:14.593Z,85.41
2023-02-23T22:43:41.182Z,84.94
2023-02-23T22:46:07.620Z,84.92
2023-02-23T22:48:34.211Z,84.80
2023-02-23T22:51:01.004Z,85.91
2023-02-23T22:53:27.368Z,85.10
2023-02-23T22:55:53.916Z,84.89
2023-02-23T22:58:20.486Z,85.18
2023-02-23T23:00:47.060Z,85.00
2023-02-23T23:03:13.473Z,85.30
2023-02-23T23:05:40.103Z,85.11
2023-02-23T23:08:06.444Z,85.17
2023-02-23T23:10:32.796Z,85.29
2023-02-23T23:12:59.132Z,84.83
2023-02-23T23:15:25.477Z,84.88
2023-02-23T23:17:51.822Z,86.08
2023-02-23T23:20:18.167Z,85.62
2023-02-23T23:22:44.746Z,85.32
2023-02-23T23:25:11.036Z,84.87
2023-02-23T23:27:37.389Z,85.18
2023-02-23T23:30:04.452Z,84.87
2023-02-23T23:32:30.858Z,85.40
2023-02-23T23:34:57.261Z,85.20
2023-02-23T23:37:23.865Z,85.78
2023-02-23T23:39:50.224Z,85.80
2023-02-23T23:42:16.556Z,85.17
2023-02-23T23:44:42.911Z,85.74
2023-02-23T23:47:09.248Z,84.95
2023-02-23T23:49:35.587Z,84.84
2023-02-23T23:52:01.961Z,85.05
2023-02-23T23:54:28.526Z,85.43
2023-02-23T23:56:55.131Z,85.77
2023-02-23T23:59:21.558Z,85.27
